METAR AND TAF INFORMATION
METAR FOR LEJR
ADDS - METARS form results

(0105 UTC 11 August 2020)
Data provider http://aviationweather.gov/metar/data/
 
METAR text: LEJR 110100Z AUTO 00000KT CAVOK 23/20 Q1010
Conditions at: LEJR (JEREZ (CIV/MIL) , ES) observed 0100 UTC 11 August 2020
Temperature: 23.0°C (73°F)
Dewpoint: 20.0°C (68°F) [RH = 83%]
Pressure (altimeter): 29.82 inches Hg (1010.0 mb)
Winds: calm
Visibility: 6 or more miles (10+ km)
Ceiling: ceiling and visibility are OK
Clouds: unknown
Weather: no significant weather observed at this time

METAR text: LEJR 110030Z AUTO 00000KT CAVOK 23/20 Q1011
Conditions at: LEJR (JEREZ (CIV/MIL) , ES) observed 0030 UTC 11 August 2020
Temperature: 23.0°C (73°F)
Dewpoint: 20.0°C (68°F) [RH = 83%]
Pressure (altimeter): 29.85 inches Hg (1011.0 mb)
Winds: calm
Visibility: 6 or more miles (10+ km)
Ceiling: ceiling and visibility are OK
Clouds: unknown
Weather: no significant weather observed at this time

Forecast for: LEJR (JEREZ (CIV/MIL) , ES)
Text: TAF LEJR 102300Z 1100/1124 16004KT CAVOK TX31/1114Z TN22/1105Z
Forecast period: 0000 to 0900 UTC 11 August 2020
Forecast type: FROM: standard forecast or significant change
Winds: from the SSE (160 degrees) at 5 MPH (4 knots; 2.1 m/s)
Visibility: 6 or more miles (10+ km)
Ceiling: unknown
Clouds: missing
Weather: no significant weather forecast for this period
Text: BECMG 1109/1112 23010KT
Forecast period: 0900 to 1900 UTC 11 August 2020
Forecast type: BECOMING: Conditions expected to become as follows by 1200 UTC 11 August 2020
Winds: from the SW (230 degrees) at 12 MPH (10 knots; 5.1 m/s)
Visibility: 6 or more miles (10+ km)
Ceiling: unknown
Clouds: missing
Weather: no significant weather forecast for this period
Text: BECMG 1119/1122 17009KT
Forecast period: 1900 UTC 11 August 2020 to 0000 UTC 12 August 2020
Forecast type: BECOMING: Conditions expected to become as follows by 2200 UTC 11 August 2020
Winds: from the S (170 degrees) at 10 MPH (9 knots; 4.6 m/s)
Visibility: 6 or more miles (10+ km)
Ceiling: unknown
Clouds: missing
Weather: no significant weather forecast for this period
Text: PROB30
Forecast period: 1200 to 1800 UTC 11 August 2020
Forecast type: TEMPORARY: The following changes expected for less than half the time period
Visibility: 2.49 miles (4.01 km)
Ceiling: at least 12,000 feet AGL
Clouds: few clouds at 2500 feet AGL
Weather: SHRA TS  (rain showers, thunderstorm)

 AIRPORT MAP

 RUNWAY INFORMATION
Runway 02 Runway length 7546 ft Runway width 148 ft
Runway elevation 68 ft Runway displaced threshold 0 ft Runway heading 21
Runway 20 Runway length 7546 ft Runway width 148 ft
Runway elevation 93 ft Runway displaced threshold 0 ft Runway heading 201

 AIRPORT FREQUENCIES
Type APP Name APP Frequency 128.5 MHZ
Type GND Name GND Frequency 121.6 MHZ
Type TWR Name TWR Frequency 118.55 MHZ

 AIRPORT NEAR NAVIGATION AIDS
Type NDB Name Jerez Frequency 433 KHZ
Type VOR-DME Name Jerez Frequency 113000 KHZ



Powered by Virtual Airlines Manager [v2.6.2]